Time;durP1;ratioP1;P1;durP2;ratioP2;P2;SDS_P1;SDS_P2;PMS_P1;PMS_P2;Temp;Humidity;BMP_temperature;BMP_pressure;BME280_temperature;BME280_humidity;BME280_pressure;Samples;Min_cycle;Max_cycle;Signal;HPM_P1;HPM_P2
2022/03/27 00:04:02;;;;;;;20.70;11.25;;;;;;;6.54;53.84;101291.72;10310765;28;20078;-82
2022/03/27 00:09:04;;;;;;;19.83;11.40;;;;;;;6.50;54.04;101292.66;10318073;28;20471;-82
2022/03/27 00:14:06;;;;;;;16.80;11.13;;;;;;;6.38;54.01;101288.59;10319679;28;20093;-82
2022/03/27 00:19:08;;;;;;;18.90;11.98;;;;;;;6.25;54.39;101287.13;10319170;28;20152;-82
2022/03/27 00:24:09;;;;;;;17.92;11.23;;;;;;;6.18;54.50;101289.00;10317853;28;20050;-82
2022/03/27 00:29:11;;;;;;;19.20;11.50;;;;;;;6.16;54.81;101285.56;10318404;28;20133;-82
2022/03/27 00:34:13;;;;;;;16.90;11.95;;;;;;;6.08;54.74;101284.84;10319068;28;20089;-82
2022/03/27 00:39:15;;;;;;;19.42;12.48;;;;;;;6.04;54.63;101283.19;10318517;28;20054;-82
2022/03/27 00:44:17;;;;;;;17.50;12.18;;;;;;;6.01;54.60;101283.25;10317305;28;20085;-81
2022/03/27 00:49:20;;;;;;;18.85;12.18;;;;;;;5.97;54.97;101281.63;10319976;28;20077;-81
2022/03/27 00:54:22;;;;;;;20.23;12.15;;;;;;;5.97;54.76;101281.63;10305165;28;20054;-81
2022/03/27 00:59:24;;;;;;;21.30;11.85;;;;;;;5.89;54.92;101288.69;10318245;28;20093;-81
2022/03/27 01:04:25;;;;;;;19.58;12.75;;;;;;;5.83;54.92;101286.22;10316904;28;20464;-82
2022/03/27 01:09:36;;;;;;;21.02;13.02;;;;;;;5.81;55.24;101281.94;10318249;28;20085;-81
2022/03/27 01:14:38;;;;;;;;;;;;;;;5.48;56.16;101279.06;10316242;28;20085;-81
2022/03/27 01:19:43;;;;;;;18.83;13.05;;;;;;;5.57;55.60;101279.78;10316871;28;19949;-82
2022/03/27 01:24:46;;;;;;;23.38;13.38;;;;;;;5.49;55.56;101278.16;10317147;28;20161;-81
2022/03/27 01:29:49;;;;;;;19.67;13.40;;;;;;;5.40;56.04;101272.28;10315995;28;20145;-82
2022/03/27 01:34:51;;;;;;;19.08;12.75;;;;;;;5.32;56.21;101268.97;10315893;28;20056;-82
2022/03/27 01:39:53;;;;;;;23.88;13.95;;;;;;;5.31;56.22;101270.72;10316136;28;20054;-81
2022/03/27 01:44:54;;;;;;;18.42;13.38;;;;;;;5.25;56.26;101257.84;10314684;28;20173;-81
2022/03/27 01:49:56;;;;;;;19.67;13.35;;;;;;;5.17;56.52;101256.25;10315158;28;20081;-81
2022/03/27 01:54:58;;;;;;;21.77;13.95;;;;;;;5.18;56.46;101255.38;10314941;28;20145;-82
2022/03/27 02:00:00;;;;;;;19.52;13.48;;;;;;;5.17;56.39;101258.84;10314362;28;20116;-82
2022/03/27 02:05:02;;;;;;;19.60;13.82;;;;;;;5.15;56.58;101261.47;10319625;28;20140;-81
2022/03/27 02:10:05;;;;;;;28.75;14.60;;;;;;;5.07;56.65;101257.28;10318853;28;20137;-81
2022/03/27 02:15:08;;;;;;;19.50;13.35;;;;;;;5.10;56.77;101258.13;10320423;28;20154;-81
2022/03/27 02:20:10;;;;;;;19.98;14.48;;;;;;;5.04;56.57;101262.53;10318722;28;20146;-81
2022/03/27 02:25:12;;;;;;;21.80;13.75;;;;;;;4.91;56.91;101261.00;10319057;28;20096;-81
2022/03/27 02:30:15;;;;;;;20.58;15.18;;;;;;;4.89;56.95;101255.84;10317156;28;20100;-81
2022/03/27 02:35:17;;;;;;;20.67;14.02;;;;;;;4.78;57.27;101255.16;10319815;28;20131;-81
2022/03/27 02:40:19;;;;;;;23.85;14.88;;;;;;;4.80;57.28;101265.53;10301662;28;20104;-81
2022/03/27 02:45:20;;;;;;;24.08;15.65;;;;;;;4.69;57.40;101260.50;10318350;28;20165;-81
2022/03/27 02:50:24;;;;;;;20.83;14.80;;;;;;;4.61;57.37;101252.84;10318279;28;20551;-81
2022/03/27 02:55:26;;;;;;;24.55;15.52;;;;;;;4.54;57.65;101260.69;10318690;28;20050;-81
2022/03/27 03:00:31;;;;;;;22.50;15.18;;;;;;;4.45;58.06;101266.88;10316538;28;20050;-81
2022/03/27 03:05:34;;;;;;;22.92;15.35;;;;;;;4.51;57.69;101264.22;10313484;28;20157;-81
2022/03/27 03:10:41;;;;;;;19.33;13.65;;;;;;;4.55;57.93;101265.03;10294703;28;20054;-81
2022/03/27 03:15:42;;;;;;;23.15;14.18;;;;;;;4.56;57.62;101264.97;10312024;28;20097;-81
2022/03/27 03:20:45;;;;;;;23.70;14.07;;;;;;;4.56;57.67;101259.81;10311234;28;20163;-81
2022/03/27 03:25:46;;;;;;;22.83;15.52;;;;;;;4.56;57.54;101257.22;10311805;28;20948;-81
2022/03/27 03:31:06;;;;;;;24.13;16.52;;;;;;;4.50;57.79;101259.03;10311131;28;20062;-81
2022/03/27 03:36:09;;;;;;;22.48;15.52;;;;;;;4.40;57.69;101265.22;10309421;28;20054;-81
2022/03/27 03:41:10;;;;;;;20.67;14.85;;;;;;;4.38;57.61;101259.19;10318255;28;20136;-81
2022/03/27 03:46:12;;;;;;;20.27;15.15;;;;;;;4.31;57.92;101258.41;10323840;28;20136;-81
2022/03/27 03:51:14;;;;;;;25.17;15.60;;;;;;;4.26;58.03;101255.03;10325156;28;20050;-81
2022/03/27 03:56:16;;;;;;;19.10;14.18;;;;;;;4.25;58.09;101262.84;10324172;28;20132;-81
2022/03/27 04:01:18;;;;;;;20.33;15.05;;;;;;;4.24;58.07;101259.38;10323822;28;20165;-81
2022/03/27 04:06:20;;;;;;;23.95;15.98;;;;;;;4.21;58.07;101262.00;10323388;28;20058;-81
2022/03/27 04:11:22;;;;;;;22.75;16.63;;;;;;;4.14;58.13;101259.53;10321715;28;20061;-81
2022/03/27 04:16:24;;;;;;;22.70;16.88;;;;;;;4.00;58.79;101264.88;10321976;28;21142;-81
2022/03/27 04:21:26;;;;;;;21.45;16.17;;;;;;;4.01;58.54;101265.72;10322469;28;20058;-81
2022/03/27 04:26:28;;;;;;;21.80;14.63;;;;;;;4.00;58.51;101262.28;10323026;28;20492;-81
2022/03/27 04:31:30;;;;;;;23.55;16.02;;;;;;;3.96;58.44;101259.75;10324325;28;20094;-81
2022/03/27 04:36:32;;;;;;;22.08;14.98;;;;;;;3.93;58.62;101273.56;10322629;28;20496;-81
2022/03/27 04:41:34;;;;;;;25.80;17.00;;;;;;;3.92;58.43;101271.00;10323274;28;20518;-81
2022/03/27 04:46:36;;;;;;;21.85;16.30;;;;;;;3.83;58.53;101270.25;10323692;28;20086;-81
2022/03/27 04:51:38;;;;;;;23.83;17.23;;;;;;;3.77;58.93;101278.03;10322014;28;20056;-81
2022/03/27 04:56:40;;;;;;;24.42;16.17;;;;;;;3.73;58.77;101270.31;10317510;28;20137;-81
2022/03/27 05:01:42;;;;;;;21.05;15.57;;;;;;;3.73;58.88;101275.50;10317176;28;20102;-82
2022/03/27 05:06:44;;;;;;;25.05;15.73;;;;;;;3.75;58.89;101278.91;10317349;28;20054;-81
2022/03/27 05:11:47;;;;;;;24.77;15.95;;;;;;;3.73;58.68;101284.13;10317076;28;20157;-82
2022/03/27 05:16:49;;;;;;;26.15;16.15;;;;;;;3.72;58.66;101284.13;10317047;28;20147;-82
2022/03/27 05:21:51;;;;;;;25.70;17.27;;;;;;;3.72;58.82;101276.38;10316339;28;20401;-82
2022/03/27 05:26:52;;;;;;;25.02;16.15;;;;;;;3.76;58.86;101280.66;10315731;28;20054;-81
2022/03/27 05:31:55;;;;;;;24.50;16.95;;;;;;;3.81;58.73;101281.44;10315226;28;20137;-82
2022/03/27 05:36:57;;;;;;;27.52;18.17;;;;;;;3.71;58.35;101283.28;10316591;28;20059;-81
2022/03/27 05:41:58;;;;;;;25.70;17.80;;;;;;;3.36;59.23;101297.41;10315813;28;20128;-81
2022/03/27 05:47:00;;;;;;;25.85;17.25;;;;;;;3.53;59.40;101292.94;10314510;28;20892;-81
2022/03/27 05:52:02;;;;;;;24.73;16.90;;;;;;;3.74;59.18;101301.34;10314865;28;20123;-82
2022/03/27 05:57:04;;;;;;;23.95;16.90;;;;;;;3.86;59.27;101306.41;10315135;28;20136;-82
2022/03/27 06:02:06;;;;;;;24.67;16.45;;;;;;;4.03;58.82;101308.00;10314768;28;20156;-81
2022/03/27 06:07:08;;;;;;;29.23;17.50;;;;;;;4.14;58.40;101308.72;10310993;28;20066;-81
2022/03/27 06:12:12;;;;;;;23.10;15.63;;;;;;;4.29;58.37;101311.13;10314560;28;20559;-81
2022/03/27 06:17:14;;;;;;;27.45;15.80;;;;;;;4.46;58.05;101309.16;10314634;28;20065;-83
2022/03/27 06:22:16;;;;;;;18.65;14.77;;;;;;;4.62;57.97;101308.06;10313743;28;20129;-82
2022/03/27 06:27:17;;;;;;;24.25;16.13;;;;;;;4.76;57.75;101308.75;10313121;28;20070;-81
2022/03/27 06:32:20;;;;;;;22.83;17.35;;;;;;;4.94;57.55;101307.63;10313186;28;20074;-82
2022/03/27 06:37:21;;;;;;;22.05;15.40;;;;;;;5.06;57.33;101300.53;10312674;28;20133;-82
2022/03/27 06:42:26;;;;;;;19.45;14.93;;;;;;;5.26;57.27;101300.22;10312855;28;20058;-81
2022/03/27 06:47:27;;;;;;;20.80;15.63;;;;;;;5.27;57.21;101314.88;10313478;28;20092;-81
2022/03/27 06:52:30;;;;;;;22.95;15.13;;;;;;;5.27;57.73;101310.56;10312508;28;20137;-82
2022/03/27 06:57:33;;;;;;;22.63;15.70;;;;;;;5.60;57.47;101313.44;10312667;28;20086;-82
2022/03/27 07:07:57;;;;;;;22.10;15.52;;;;;;;5.98;56.69;101313.63;10309912;28;20052;-82
2022/03/27 07:12:59;;;;;;;25.13;15.02;;;;;;;6.21;56.58;101314.03;10311099;28;20141;-81
2022/03/27 07:18:01;;;;;;;21.13;15.07;;;;;;;6.38;56.35;101308.53;10311177;28;20042;-82
2022/03/27 07:23:05;;;;;;;26.80;16.00;;;;;;;6.59;56.17;101314.13;10309127;28;20061;-82
2022/03/27 07:28:09;;;;;;;19.52;15.23;;;;;;;6.77;55.69;101316.34;10306563;28;20189;-82
2022/03/27 07:33:11;;;;;;;22.52;15.35;;;;;;;6.99;55.22;101314.97;10296773;28;20137;-82
2022/03/27 07:38:13;;;;;;;22.08;15.23;;;;;;;7.25;55.02;101314.31;10307387;28;20074;-82
2022/03/27 07:43:15;;;;;;;24.90;15.52;;;;;;;7.47;54.63;101312.91;10305313;28;20165;-82
2022/03/27 07:48:17;;;;;;;25.95;17.42;;;;;;;7.96;54.12;101308.13;10302316;28;20042;-82
2022/03/27 07:53:18;;;;;;;23.52;17.10;;;;;;;8.70;52.39;101307.75;10306108;28;20054;-82
2022/03/27 07:58:20;;;;;;;23.60;16.98;;;;;;;9.18;51.62;101298.38;10308445;28;20046;-82
2022/03/27 08:03:22;;;;;;;25.33;16.95;;;;;;;9.82;50.36;101293.66;10304235;28;20054;-82
2022/03/27 08:08:24;;;;;;;23.42;16.48;;;;;;;10.31;49.35;101284.00;10307393;28;20136;-82
2022/03/27 08:13:26;;;;;;;24.10;16.80;;;;;;;10.97;48.26;101275.28;10307499;28;20054;-82
2022/03/27 08:18:29;;;;;;;25.92;17.77;;;;;;;11.50;47.21;101269.66;10308217;28;20927;-82
2022/03/27 08:23:31;;;;;;;25.35;16.90;;;;;;;11.85;46.54;101267.22;10306630;28;20058;-82
2022/03/27 08:28:34;;;;;;;27.67;19.23;;;;;;;12.03;46.97;101276.03;10311309;28;20050;-82
2022/03/27 08:33:38;;;;;;;27.77;17.73;;;;;;;12.12;46.95;101278.25;10314193;28;20050;-82
2022/03/27 08:38:40;;;;;;;21.65;17.50;;;;;;;12.31;46.49;101268.66;10312681;28;20061;-82
2022/03/27 08:43:43;;;;;;;24.25;17.08;;;;;;;12.15;46.88;101268.47;10312470;28;20579;-82
2022/03/27 08:48:49;;;;;;;22.67;17.58;;;;;;;12.65;46.34;101267.94;10312521;28;20200;-82
2022/03/27 08:54:07;;;;;;;24.58;17.80;;;;;;;13.21;44.89;101270.47;10312601;28;20054;-82
2022/03/27 08:59:11;;;;;;;23.60;17.10;;;;;;;13.56;44.92;101266.94;10313253;28;20054;-82
2022/03/27 09:04:15;;;;;;;22.42;18.25;;;;;;;13.69;45.56;101265.41;10309232;28;20065;-82
2022/03/27 09:09:17;;;;;;;23.70;17.67;;;;;;;13.90;44.98;101259.03;10311516;28;20147;-82
2022/03/27 09:14:19;;;;;;;22.33;17.20;;;;;;;14.32;44.61;101264.63;10312545;28;20050;-83
2022/03/27 09:19:34;;;;;;;24.40;18.00;;;;;;;14.81;44.32;101262.81;10312964;28;20515;-83
2022/03/27 09:24:36;;;;;;;27.45;17.98;;;;;;;14.86;43.84;101262.56;10310536;28;20149;-83
2022/03/27 09:30:06;;;;;;;25.92;17.67;;;;;;;14.99;43.51;101256.50;10298086;28;20551;-83
2022/03/27 09:35:16;;;;;;;22.77;16.52;;;;;;;15.38;43.31;101242.81;10314036;28;20186;-83
2022/03/27 09:40:18;;;;;;;23.10;16.63;;;;;;;15.59;43.42;101244.19;10313484;28;20516;-83
2022/03/27 09:45:25;;;;;;;23.02;17.10;;;;;;;15.64;43.95;101244.75;10313675;28;20082;-83
2022/03/27 09:50:40;;;;;;;21.58;16.85;;;;;;;15.71;42.94;101240.84;10311881;28;20085;-83
2022/03/27 09:55:42;;;;;;;23.17;16.27;;;;;;;15.85;43.02;101227.66;10312512;28;20120;-83
2022/03/27 10:00:43;;;;;;;26.80;17.23;;;;;;;16.03;42.74;101223.88;10313943;28;20085;-83
2022/03/27 10:06:26;;;;;;;21.08;16.02;;;;;;;16.06;42.08;101217.56;10313548;28;20059;-83
2022/03/27 10:11:28;;;;;;;22.20;16.50;;;;;;;16.36;42.49;101212.16;10311658;28;20451;-83
2022/03/27 10:16:42;;;;;;;21.17;16.27;;;;;;;16.34;42.61;101208.75;10312555;28;20490;-83
2022/03/27 10:21:52;;;;;;;21.23;16.17;;;;;;;16.50;41.94;101199.78;10315008;28;20495;-87
2022/03/27 10:26:58;;;;;;;18.85;15.32;;;;;;;16.54;42.00;101195.16;10298149;28;20932;-86
2022/03/27 10:32:04;;;;;;;22.23;14.57;;;;;;;16.73;40.63;101191.22;10306510;28;20153;-85
2022/03/27 10:37:29;;;;;;;20.48;15.35;;;;;;;16.82;39.71;101182.69;10308079;28;20144;-86
2022/03/27 10:42:54;;;;;;;20.58;15.65;;;;;;;16.76;39.79;101174.31;10312184;28;20572;-85
2022/03/27 10:48:16;;;;;;;19.85;14.85;;;;;;;16.95;39.75;101161.59;10312986;28;20133;-86
2022/03/27 10:53:25;;;;;;;19.77;14.10;;;;;;;17.10;40.39;101155.25;10308093;28;20771;-86
2022/03/27 10:58:34;;;;;;;19.60;13.18;;;;;;;17.25;39.73;101150.75;10284345;28;20081;-86
2022/03/27 11:03:45;;;;;;;17.13;10.63;;;;;;;16.98;37.11;101148.16;10275991;28;20333;-83
2022/03/27 11:08:49;;;;;;;17.60;11.25;;;;;;;17.10;37.16;101144.69;10267870;28;20162;-84
2022/03/27 11:13:50;;;;;;;18.85;12.55;;;;;;;17.17;38.00;101137.19;10282370;28;20046;-85
2022/03/27 11:18:53;;;;;;;21.65;11.52;;;;;;;17.16;37.65;101124.94;10287428;28;20141;-86
2022/03/27 11:24:04;;;;;;;15.35;11.02;;;;;;;17.30;36.91;101119.56;10286343;28;20125;-86
2022/03/27 11:29:21;;;;;;;15.93;10.93;;;;;;;17.27;37.49;101120.59;10289944;28;20143;-86
2022/03/27 11:34:27;;;;;;;17.45;10.18;;;;;;;17.14;36.85;101117.09;10289601;28;20066;-86
2022/03/27 11:39:36;;;;;;;15.32;9.73;;;;;;;17.14;35.61;101116.28;10283807;28;20132;-86
2022/03/27 11:50:29;;;;;;;13.30;7.93;;;;;;;17.44;35.27;101103.63;10164485;29;20043;-86
2022/03/27 11:55:33;;;;;;;11.18;8.27;;;;;;;17.55;35.17;101101.03;10259374;28;20149;-85
2022/03/27 12:00:44;;;;;;;13.02;9.07;;;;;;;17.72;35.02;101104.22;10262548;28;20055;-86
2022/03/27 12:05:50;;;;;;;14.20;9.90;;;;;;;17.85;35.91;101098.91;10275430;28;20089;-86
2022/03/27 12:10:57;;;;;;;13.05;10.32;;;;;;;17.86;36.55;101084.69;10295439;28;20138;-86
2022/03/27 12:16:00;;;;;;;14.10;9.60;;;;;;;17.83;36.50;101079.63;10294545;28;20050;-86
2022/03/27 12:21:14;;;;;;;14.18;10.90;;;;;;;17.91;35.85;101084.38;10293228;28;20060;-86
2022/03/27 12:31:41;;;;;;;15.10;11.65;;;;;;;17.84;36.98;101066.28;10286396;28;20972;-86
2022/03/27 12:37:08;;;;;;;16.15;11.95;;;;;;;18.05;37.06;101058.59;10297107;28;20047;-86
2022/03/27 12:42:42;;;;;;;15.13;11.30;;;;;;;18.12;36.72;101053.69;10279271;28;20105;-86
2022/03/27 12:48:03;;;;;;;15.75;11.85;;;;;;;18.18;36.68;101058.56;10291831;28;20126;-86
2022/03/27 12:53:28;;;;;;;14.48;10.98;;;;;;;18.21;37.75;101051.25;10293239;28;20122;-86
2022/03/27 12:58:38;;;;;;;16.60;10.32;;;;;;;18.45;36.38;101040.63;10291763;28;20807;-86
2022/03/27 13:04:00;;;;;;;12.82;9.82;;;;;;;18.25;37.57;101028.88;10292768;28;20059;-86
2022/03/27 13:09:08;;;;;;;13.38;8.68;;;;;;;18.55;35.75;101020.44;10293144;28;20090;-86
2022/03/27 13:14:14;;;;;;;13.23;8.80;;;;;;;18.88;35.97;101017.88;10294758;28;20062;-86
2022/03/27 13:19:41;;;;;;;13.57;10.45;;;;;;;18.82;35.75;101013.03;10279980;28;20178;-86
2022/03/27 13:24:49;;;;;;;12.30;9.40;;;;;;;18.90;35.05;101005.34;10291704;28;20156;-86
2022/03/27 13:29:51;;;;;;;10.32;7.65;;;;;;;18.87;35.09;101010.03;10295888;28;20153;-86
2022/03/27 13:34:53;;;;;;;12.52;8.05;;;;;;;19.01;35.05;101000.03;10274855;28;20090;-86
2022/03/27 13:39:58;;;;;;;15.52;10.27;;;;;;;18.82;35.19;100990.97;10274324;28;20976;-85
2022/03/27 13:45:01;;;;;;;12.45;8.23;;;;;;;18.92;35.21;100981.34;10295256;28;20117;-85
2022/03/27 13:50:04;;;;;;;11.57;8.70;;;;;;;19.04;35.47;100975.97;10286516;28;20078;-86
2022/03/27 13:55:06;;;;;;;11.15;8.80;;;;;;;19.22;35.68;100979.81;10274594;28;20061;-86
2022/03/27 14:00:09;;;;;;;12.45;8.40;;;;;;;19.27;34.98;100971.50;10293327;28;20279;-87
2022/03/27 14:05:12;;;;;;;11.75;8.57;;;;;;;19.63;34.99;100957.94;10276725;28;20058;-86
2022/03/27 14:10:14;;;;;;;12.13;8.57;;;;;;;19.85;34.77;100962.34;10290343;28;20202;-86
2022/03/27 14:15:16;;;;;;;13.05;9.10;;;;;;;19.78;35.55;100961.16;10291759;28;20058;-86
2022/03/27 14:20:19;;;;;;;12.35;8.57;;;;;;;19.76;35.26;100957.78;10286068;28;20078;-86
2022/03/27 14:25:23;;;;;;;13.90;8.10;;;;;;;19.47;34.64;100954.84;10289494;28;20054;-86
2022/03/27 14:30:31;;;;;;;12.70;8.48;;;;;;;19.56;34.30;100948.81;10287928;28;20086;-86
2022/03/27 14:35:33;;;;;;;10.80;8.27;;;;;;;19.32;34.61;100948.09;10273344;28;20161;-86
2022/03/27 14:40:38;;;;;;;11.50;7.90;;;;;;;19.44;34.74;100937.34;10292334;28;20137;-85
2022/03/27 14:45:41;;;;;;;12.07;7.70;;;;;;;19.52;34.02;100928.78;10290224;28;20134;-85
2022/03/27 14:50:46;;;;;;;11.57;8.07;;;;;;;19.55;34.46;100930.31;10271799;28;20089;-86
2022/03/27 14:55:59;;;;;;;9.20;7.60;;;;;;;19.51;33.90;100920.94;10293651;28;20054;-86
2022/03/27 15:01:02;;;;;;;12.07;7.53;;;;;;;19.53;34.33;100913.69;10285764;28;20129;-86
2022/03/27 15:06:04;;;;;;;8.25;6.60;;;;;;;19.69;34.14;100898.19;10290349;28;20054;-86
2022/03/27 15:11:12;;;;;;;11.02;7.82;;;;;;;19.68;33.58;100909.78;10264177;28;20086;-86
2022/03/27 15:16:14;;;;;;;10.65;8.35;;;;;;;19.69;33.99;100887.56;10288963;28;20161;-86
2022/03/27 15:21:21;;;;;;;16.90;8.18;;;;;;;19.63;33.50;100898.69;10266095;28;20047;-85
2022/03/27 15:26:23;;;;;;;11.05;7.50;;;;;;;19.66;34.84;100891.34;10290262;28;20081;-86
2022/03/27 15:31:24;;;;;;;13.57;8.73;;;;;;;19.75;33.76;100884.41;10290148;28;20162;-86
2022/03/27 15:36:28;;;;;;;10.63;8.27;;;;;;;19.55;33.51;100885.22;10283265;28;20480;-86
2022/03/27 15:41:37;;;;;;;9.93;7.13;;;;;;;19.55;34.37;100878.09;10287505;28;20856;-87
2022/03/27 15:46:47;;;;;;;20.17;7.57;;;;;;;19.42;33.60;100880.06;10281879;28;20136;-86
2022/03/27 15:51:50;;;;;;;9.80;7.03;;;;;;;19.25;34.32;100877.97;10280558;28;20085;-86
2022/03/27 15:56:54;;;;;;;14.63;7.15;;;;;;;19.20;34.50;100883.63;10285550;28;20146;-86
2022/03/27 16:01:56;;;;;;;10.50;6.97;;;;;;;19.16;34.90;100879.53;10279258;28;20533;-86
2022/03/27 16:07:00;;;;;;;8.88;7.00;;;;;;;19.21;34.82;100872.06;10267515;28;21206;-82
2022/03/27 16:12:04;;;;;;;9.57;7.20;;;;;;;19.32;34.82;100879.97;10267718;28;20145;-83
2022/03/27 16:17:09;;;;;;;9.35;6.88;;;;;;;19.30;34.51;100873.97;10276815;28;20081;-83
2022/03/27 16:22:13;;;;;;;9.93;7.03;;;;;;;19.18;34.42;100877.59;10265681;28;20137;-82
2022/03/27 16:27:19;;;;;;;9.82;6.95;;;;;;;19.05;34.62;100873.41;10283282;28;20451;-83
2022/03/27 16:32:22;;;;;;;9.05;6.80;;;;;;;19.02;35.50;100871.00;10283051;28;20511;-83
2022/03/27 16:37:24;;;;;;;8.27;6.28;;;;;;;18.80;35.44;100871.84;10280222;28;20051;-83
2022/03/27 16:42:30;;;;;;;11.38;6.57;;;;;;;18.54;35.56;100875.69;10288127;28;20137;-83
2022/03/27 16:47:32;;;;;;;12.25;7.70;;;;;;;18.50;35.90;100874.25;10285835;28;20142;-83
2022/03/27 16:52:35;;;;;;;9.18;6.47;;;;;;;18.35;36.10;100878.06;10291175;28;20113;-83
2022/03/27 16:57:37;;;;;;;9.77;6.05;;;;;;;18.28;36.26;100877.69;10286661;28;20260;-83
2022/03/27 17:02:41;;;;;;;8.25;5.63;;;;;;;18.22;36.08;100885.28;10288201;28;20174;-83
2022/03/27 17:07:44;;;;;;;9.23;5.70;;;;;;;18.11;36.33;100878.13;10274650;28;20053;-83
2022/03/27 17:12:49;;;;;;;10.57;5.60;;;;;;;17.90;37.33;100878.88;10288599;28;20713;-83
2022/03/27 17:17:51;;;;;;;7.47;4.97;;;;;;;17.74;37.42;100876.53;10290083;28;20109;-83
2022/03/27 17:23:00;;;;;;;8.98;5.20;;;;;;;17.57;38.02;100880.44;10286119;28;20061;-83
2022/03/27 17:28:02;;;;;;;7.50;5.43;;;;;;;17.35;38.45;100877.69;10293560;28;20154;-83
2022/03/27 17:33:05;;;;;;;78.40;65.30;;;;;;;17.09;39.45;100877.84;10291306;28;20591;-83
2022/03/27 17:38:07;;;;;;;56.58;43.05;;;;;;;16.78;39.90;100885.31;10292964;28;20178;-83
2022/03/27 17:43:09;;;;;;;27.52;23.20;;;;;;;16.52;40.60;100881.00;10293674;28;20146;-83
2022/03/27 17:48:17;;;;;;;22.35;15.48;;;;;;;16.28;41.40;100887.94;10284532;28;20134;-83
2022/03/27 17:53:20;;;;;;;11.93;8.63;;;;;;;16.09;41.79;100888.34;10291293;28;20125;-83
2022/03/27 17:58:21;;;;;;;9.63;6.13;;;;;;;15.93;41.97;100897.38;10275864;28;20078;-83
2022/03/27 18:03:23;;;;;;;8.85;6.65;;;;;;;15.70;42.54;100898.91;10290861;28;20082;-83
2022/03/27 18:08:26;;;;;;;19.40;12.73;;;;;;;15.52;42.75;100902.75;10276585;28;20050;-83
2022/03/27 18:13:27;;;;;;;14.93;7.50;;;;;;;15.41;42.75;100899.91;10278930;28;20133;-83
2022/03/27 18:18:29;;;;;;;24.30;18.08;;;;;;;15.29;42.96;100900.69;10294648;28;20089;-83
2022/03/27 18:23:39;;;;;;;18.70;14.38;;;;;;;15.16;43.39;100907.69;10290576;28;20058;-83
2022/03/27 18:28:42;;;;;;;35.58;27.58;;;;;;;15.03;43.49;100915.53;10293912;28;20136;-83
2022/03/27 18:33:44;;;;;;;19.83;15.13;;;;;;;15.00;43.63;100914.88;10276494;28;20145;-83
2022/03/27 18:38:45;;;;;;;12.23;8.70;;;;;;;14.89;43.79;100914.69;10292267;28;20117;-83
2022/03/27 18:43:47;;;;;;;10.30;7.25;;;;;;;14.67;44.30;100927.47;10292460;28;20106;-82
2022/03/27 18:48:49;;;;;;;13.30;8.38;;;;;;;14.55;44.49;100929.06;10279649;28;20057;-81
2022/03/27 18:53:52;;;;;;;15.98;9.88;;;;;;;14.38;44.97;100930.06;10285761;28;20141;-82
2022/03/27 18:58:54;;;;;;;12.75;8.68;;;;;;;14.25;45.36;100930.84;10286449;28;20109;-81
2022/03/27 19:03:55;;;;;;;12.75;8.77;;;;;;;14.11;45.73;100933.44;10269140;28;20602;-82
2022/03/27 19:08:57;;;;;;;17.08;9.40;;;;;;;14.00;45.86;100936.72;10289735;28;20081;-82
2022/03/27 19:14:02;;;;;;;10.43;7.95;;;;;;;13.91;46.37;100946.91;10290634;28;20071;-82
2022/03/27 19:19:04;;;;;;;13.32;10.27;;;;;;;13.75;46.63;100941.69;10287406;28;20247;-82
2022/03/27 19:24:06;;;;;;;13.90;9.98;;;;;;;13.57;47.05;100940.97;10287215;28;20086;-82
2022/03/27 19:29:08;;;;;;;14.52;11.55;;;;;;;13.47;47.14;100944.19;10288288;28;20142;-82
2022/03/27 19:34:10;;;;;;;14.85;11.27;;;;;;;13.44;47.33;100939.06;10288042;28;20110;-82
2022/03/27 19:39:12;;;;;;;14.77;11.02;;;;;;;13.35;47.38;100937.75;10291238;28;20050;-81
2022/03/27 19:44:13;;;;;;;10.73;8.27;;;;;;;13.23;47.80;100945.50;10290116;28;20105;-82
2022/03/27 19:49:15;;;;;;;14.40;10.13;;;;;;;13.08;48.09;100941.91;10290953;28;20055;-82
2022/03/27 19:54:17;;;;;;;11.43;8.95;;;;;;;13.01;48.53;100951.03;10290141;28;20165;-82
2022/03/27 19:59:20;;;;;;;12.70;9.45;;;;;;;12.90;48.68;100946.34;10289543;28;20095;-82
2022/03/27 20:04:21;;;;;;;12.82;9.05;;;;;;;12.73;48.86;100951.66;10288909;28;20054;-82
2022/03/27 20:09:23;;;;;;;10.10;6.88;;;;;;;12.52;49.57;100949.28;10273136;28;20124;-81
2022/03/27 20:14:26;;;;;;;8.30;6.07;;;;;;;12.33;49.93;100949.41;10289447;28;20054;-81
2022/03/27 20:19:28;;;;;;;10.85;6.15;;;;;;;12.28;50.22;100961.00;10287097;28;20108;-82
2022/03/27 20:24:30;;;;;;;11.30;7.70;;;;;;;12.18;50.56;100952.78;10291824;28;20121;-82
2022/03/27 20:29:53;;;;;;;10.90;7.65;;;;;;;12.03;51.16;100961.38;10296730;28;20895;-82
2022/03/27 20:34:55;;;;;;;10.15;7.75;;;;;;;11.91;51.04;100957.59;10293365;28;20058;-82
2022/03/27 20:39:58;;;;;;;8.15;5.93;;;;;;;11.70;51.50;100956.00;10299520;28;20127;-81
2022/03/27 20:44:59;;;;;;;9.23;5.85;;;;;;;11.65;51.66;100960.63;10275140;28;20157;-82
2022/03/27 20:50:03;;;;;;;9.68;6.43;;;;;;;11.48;51.87;100963.19;10276963;28;20539;-82
2022/03/27 20:55:05;;;;;;;11.13;8.20;;;;;;;11.32;52.26;100964.00;10297666;28;20064;-82
2022/03/27 21:00:09;;;;;;;7.15;5.55;;;;;;;11.32;52.43;100971.88;10294525;28;20065;-82
2022/03/27 21:05:36;;;;;;;8.13;5.47;;;;;;;11.19;53.01;100971.56;10296663;28;20144;-82
2022/03/27 21:10:39;;;;;;;8.98;5.00;;;;;;;11.25;52.65;100971.28;10293639;28;20050;-82
2022/03/27 21:15:42;;;;;;;11.90;6.18;;;;;;;11.13;52.87;100972.69;10294506;28;20475;-81
2022/03/27 21:20:43;;;;;;;7.90;5.97;;;;;;;10.96;53.21;100975.19;10295765;28;20104;-82
2022/03/27 21:25:45;;;;;;;10.18;5.35;;;;;;;10.81;53.67;100983.72;10297420;28;20095;-82
2022/03/27 21:30:47;;;;;;;10.00;6.80;;;;;;;10.73;53.83;100977.13;10292232;28;20043;-82
2022/03/27 21:35:49;;;;;;;8.07;5.47;;;;;;;10.67;53.82;100978.25;10276311;28;20050;-82
2022/03/27 21:40:51;;;;;;;7.47;5.13;;;;;;;10.57;54.06;100970.84;10294459;28;20062;-82
2022/03/27 21:45:53;;;;;;;9.48;5.57;;;;;;;10.50;54.33;100978.97;10293772;28;20094;-82
2022/03/27 21:50:55;;;;;;;7.93;5.85;;;;;;;10.39;54.49;100975.13;10294918;28;20128;-82
2022/03/27 21:55:56;;;;;;;8.18;5.85;;;;;;;10.26;54.60;100961.69;10293683;28;20046;-82
2022/03/27 22:01:01;;;;;;;11.00;5.90;;;;;;;10.14;55.08;100969.19;10294906;28;20053;-82
2022/03/27 22:06:04;;;;;;;8.75;5.32;;;;;;;10.08;55.15;100972.06;10291744;28;20428;-82
2022/03/27 22:11:08;;;;;;;9.70;5.90;;;;;;;9.98;55.26;100970.75;10285671;28;20137;-82
2022/03/27 22:16:11;;;;;;;7.97;6.32;;;;;;;9.93;55.46;100970.94;10291621;28;20057;-82
2022/03/27 22:21:15;;;;;;;10.00;6.13;;;;;;;9.87;55.38;100970.34;10293470;28;20053;-81
2022/03/27 22:26:17;;;;;;;7.57;5.72;;;;;;;9.73;55.77;100968.28;10289390;28;20144;-81
2022/03/27 22:31:19;;;;;;;9.75;5.93;;;;;;;9.52;56.18;100974.31;10295462;28;20929;-81
2022/03/27 22:36:21;;;;;;;9.98;5.88;;;;;;;9.45;56.41;100973.69;10292705;28;20141;-82
2022/03/27 22:41:25;;;;;;;8.57;6.00;;;;;;;9.37;56.71;100967.94;10291569;28;20484;-82
2022/03/27 22:46:28;;;;;;;11.07;6.50;;;;;;;9.29;56.84;100961.28;10290937;28;20266;-82
2022/03/27 22:51:30;;;;;;;8.95;5.80;;;;;;;9.01;57.21;100961.50;10290569;28;20548;-82
2022/03/27 22:56:34;;;;;;;10.20;6.22;;;;;;;9.07;57.20;100958.66;10291974;28;20070;-82
2022/03/27 23:01:36;;;;;;;11.02;6.28;;;;;;;9.07;57.31;100950.81;10293383;28;20114;-82
2022/03/27 23:06:38;;;;;;;8.20;6.50;;;;;;;9.00;57.41;100951.94;10291762;28;20081;-82
2022/03/27 23:11:39;;;;;;;7.93;6.00;;;;;;;8.92;57.55;100948.78;10293201;28;20136;-82
2022/03/27 23:16:41;;;;;;;10.13;6.40;;;;;;;8.91;57.54;100951.44;10290633;28;20057;-82
2022/03/27 23:21:43;;;;;;;9.20;6.28;;;;;;;8.87;57.55;100944.63;10289279;28;20523;-81